Observation data for O'Donnell on 05/25/2019      Previous  Date  Next       Current Mesonet Observations  Soil Data  Daily Summary Page  Observations in Plain Language
KOES 250500Z 13006KT 21/16 A2997 RMK A01 T02140164  RH  077%=      5-min Rain = 0
KOES 250505Z 13006KT 21/16 A2997 RMK A01 T02130164  RH  077%=      5-min Rain = 0
KOES 250510Z 13006KT 21/16 A2997 RMK A01 T02130164  RH  077%=      5-min Rain = 0
KOES 250515Z 13006KT 21/16 A2997 RMK A01 T02140164  RH  077%=      5-min Rain = 0
KOES 250520Z 13007KT 21/16 A2997 RMK A01 T02140164  RH  077%=      5-min Rain = 0
KOES 250525Z 13007KT 21/16 A2997 RMK A01 T02140164  RH  077%=      5-min Rain = 0
KOES 250530Z 12007KT 21/16 A2997 RMK A01 T02130164  RH  077%=      5-min Rain = 0
KOES 250535Z 12008KT 21/17 A2996 RMK A01 T02130165  RH  078%=      5-min Rain = 0
KOES 250540Z 10008KT 21/17 A2996 RMK A01 T02110165  RH  079%=      5-min Rain = 0
KOES 250545Z 10009KT 21/17 A2996 RMK A01 T02100165  RH  079%=      5-min Rain = 0
KOES 250550Z 10008KT 21/17 A2997 RMK A01 T02100165  RH  079%=      5-min Rain = 0
KOES 250555Z 10008KT 21/17 A2996 RMK A01 T02100165  RH  079%=      5-min Rain = 0
KOES 250600Z 10008KT 21/17 A2996 RMK A01 T02100165  RH  079%=      5-min Rain = 0
KOES 250605Z 10008KT 21/17 A2996 RMK A01 T02110165  RH  079%=      5-min Rain = 0
KOES 250610Z 09008KT 21/17 A2996 RMK A01 T02130165  RH  078%=      5-min Rain = 0
KOES 250615Z 07007KT 21/16 A2996 RMK A01 T02100164  RH  079%=      5-min Rain = 0
KOES 250620Z 06007KT 20/17 A2996 RMK A01 T02030165  RH  083%=      5-min Rain = 0
KOES 250625Z 07007KT 20/17 A2996 RMK A01 T01990165  RH  085%=      5-min Rain = 0
KOES 250630Z 07007KT 20/17 A2996 RMK A01 T01980166  RH  086%=      5-min Rain = 0
KOES 250635Z 08006KT 20/17 A2996 RMK A01 T01980166  RH  086%=      5-min Rain = 0
KOES 250640Z 08006KT 20/17 A2996 RMK A01 T01980167  RH  086%=      5-min Rain = 0
KOES 250645Z 08006KT 20/17 A2996 RMK A01 T01980167  RH  086%=      5-min Rain = 0
KOES 250650Z 07006KT 20/17 A2996 RMK A01 T01980167  RH  086%=      5-min Rain = 0
KOES 250655Z 08007KT 20/17 A2996 RMK A01 T01990168  RH  086%=      5-min Rain = 0
KOES 250700Z 08007KT 20/17 A2995 RMK A01 T02000168  RH  086%=      5-min Rain = 0
KOES 250705Z 08007KT 20/17 A2995 RMK A01 T02000169  RH  086%=      5-min Rain = 0
KOES 250710Z 09006KT 20/17 A2995 RMK A01 T02010169  RH  086%=      5-min Rain = 0
KOES 250715Z 08006KT 20/17 A2995 RMK A01 T02010170  RH  086%=      5-min Rain = 0
KOES 250720Z 08006KT 20/17 A2995 RMK A01 T02020170  RH  086%=      5-min Rain = 0
KOES 250725Z 08006KT 20/17 A2995 RMK A01 T02020170  RH  086%=      5-min Rain = 0
KOES 250730Z 08006KT 20/17 A2995 RMK A01 T02030170  RH  086%=      5-min Rain = 0
KOES 250735Z 09006KT 20/17 A2995 RMK A01 T02040170  RH  085%=      5-min Rain = 0
KOES 250740Z 10007KT 21/17 A2995 RMK A01 T02060170  RH  084%=      5-min Rain = 0
KOES 250745Z 10007KT 21/17 A2995 RMK A01 T02080169  RH  082%=      5-min Rain = 0
KOES 250750Z 10009KT 21/17 A2994 RMK A01 T02090169  RH  082%=      5-min Rain = 0
KOES 250755Z 11008KT 21/17 A2994 RMK A01 T02100169  RH  081%=      5-min Rain = 0
KOES 250800Z 11009KT 21/17 A2994 RMK A01 T02110168  RH  080%=      5-min Rain = 0
KOES 250805Z 11009KT 21/17 A2994 RMK A01 T02120168  RH  080%=      5-min Rain = 0
KOES 250810Z 11009KT 21/17 A2994 RMK A01 T02120168  RH  080%=      5-min Rain = 0
KOES 250815Z 11009KT 21/17 A2994 RMK A01 T02120168  RH  080%=      5-min Rain = 0
KOES 250820Z 12010KT 21/17 A2994 RMK A01 T02130169  RH  080%=      5-min Rain = 0
KOES 250825Z 12008KT 21/17 A2994 RMK A01 T02130169  RH  080%=      5-min Rain = 0
KOES 250830Z 12009KT 21/17 A2994 RMK A01 T02140170  RH  080%=      5-min Rain = 0
KOES 250835Z 11010KT 21/17 A2994 RMK A01 T02130170  RH  080%=      5-min Rain = 0
KOES 250840Z 12010KT 21/17 A2994 RMK A01 T02130169  RH  080%=      5-min Rain = 0
KOES 250845Z 12010KT 21/17 A2994 RMK A01 T02130169  RH  080%=      5-min Rain = 0
KOES 250850Z 12011KT 21/17 A2994 RMK A01 T02140169  RH  080%=      5-min Rain = 0
KOES 250855Z 12010KT 21/17 A2994 RMK A01 T02140169  RH  080%=      5-min Rain = 0
KOES 250900Z 12011KT 21/17 A2994 RMK A01 T02130169  RH  080%=      5-min Rain = 0
KOES 250905Z 12012KT 21/17 A2994 RMK A01 T02130169  RH  080%=      5-min Rain = 0
KOES 250910Z 12012KT 21/17 A2994 RMK A01 T02130169  RH  080%=      5-min Rain = 0
KOES 250915Z 12012KT 21/17 A2994 RMK A01 T02120170  RH  080%=      5-min Rain = 0
KOES 250920Z 12012KT 21/17 A2994 RMK A01 T02120170  RH  081%=      5-min Rain = 0
KOES 250925Z 12012KT 21/17 A2994 RMK A01 T02120170  RH  081%=      5-min Rain = 0
KOES 250930Z 12011KT 21/17 A2994 RMK A01 T02110170  RH  081%=      5-min Rain = 0
KOES 250935Z 13011KT 21/17 A2994 RMK A01 T02110170  RH  081%=      5-min Rain = 0
KOES 250940Z 13010KT 21/17 A2994 RMK A01 T02110171  RH  082%=      5-min Rain = 0
KOES 250945Z 12012KT 21/17 A2994 RMK A01 T02100171  RH  082%=      5-min Rain = 0
KOES 250950Z 12013KT 21/17 A2994 RMK A01 T02100171  RH  083%=      5-min Rain = 0
KOES 250955Z 12012KT 21/17 A2994 RMK A01 T02090171  RH  083%=      5-min Rain = 0
KOES 251000Z 12011G18KT 21/17 A2994 RMK A01 T02090171  RH  083%=      5-min Rain = 0
KOES 251005Z 12011KT 21/17 A2995 RMK A01 T02080171  RH  084%=      5-min Rain = 0
KOES 251010Z 13011KT 21/17 A2995 RMK A01 T02070171  RH  084%=      5-min Rain = 0
KOES 251015Z 13012KT 21/17 A2995 RMK A01 T02070171  RH  084%=      5-min Rain = 0
KOES 251020Z 13009KT 21/17 A2995 RMK A01 T02060171  RH  084%=      5-min Rain = 0
KOES 251025Z 13010KT 21/17 A2995 RMK A01 T02060171  RH  085%=      5-min Rain = 0
KOES 251030Z 13012G17KT 21/17 A2995 RMK A01 T02050171  RH  085%=      5-min Rain = 0
KOES 251035Z 13011G16KT 20/17 A2995 RMK A01 T02040171  RH  085%=      5-min Rain = 0
KOES 251040Z 13011G17KT 20/17 A2995 RMK A01 T02040171  RH  085%=      5-min Rain = 0
KOES 251045Z 13011G16KT 20/17 A2995 RMK A01 T02030171  RH  086%=      5-min Rain = 0
KOES 251050Z 13012KT 20/17 A2996 RMK A01 T02030171  RH  086%=      5-min Rain = 0
KOES 251055Z 13011KT 20/17 A2996 RMK A01 T02020171  RH  086%=      5-min Rain = 0
KOES 251100Z 13011KT 20/17 A2996 RMK A01 T02020171  RH  087%=      5-min Rain = 0
KOES 251105Z 12010KT 20/17 A2996 RMK A01 T02020171  RH  087%=      5-min Rain = 0
KOES 251110Z 13010KT 20/17 A2996 RMK A01 T02020172  RH  087%=      5-min Rain = 0
KOES 251115Z 12010KT 20/17 A2996 RMK A01 T02020172  RH  087%=      5-min Rain = 0
KOES 251120Z 13011KT 20/17 A2997 RMK A01 T02010172  RH  088%=      5-min Rain = 0
KOES 251125Z 13010KT 20/17 A2997 RMK A01 T02010172  RH  088%=      5-min Rain = 0
KOES 251130Z 13011KT 20/17 A2997 RMK A01 T02010173  RH  088%=      5-min Rain = 0
KOES 251135Z 13010KT 20/17 A2997 RMK A01 T02000173  RH  089%=      5-min Rain = 0
KOES 251140Z 13009KT 20/17 A2997 RMK A01 T02000173  RH  089%=      5-min Rain = 0
KOES 251145Z 13010KT 20/17 A2997 RMK A01 T02000173  RH  089%=      5-min Rain = 0
KOES 251150Z 14011KT 20/17 A2997 RMK A01 T02000174  RH  089%=      5-min Rain = 0
KOES 251155Z 14011G17KT 20/17 A2998 RMK A01 T02000174  RH  090%=      5-min Rain = 0
KOES 251200Z 14011G16KT 20/18 A2998 RMK A01 T01990175  RH  090%=      5-min Rain = 0
KOES 251205Z 13012KT 20/18 A2998 RMK A01 T01990175  RH  091%=      5-min Rain = 0
KOES 251210Z 14012G17KT 20/18 A2998 RMK A01 T01990176  RH  091%=      5-min Rain = 0
KOES 251215Z 13012KT 20/18 A2998 RMK A01 T01990176  RH  091%=      5-min Rain = 0
KOES 251220Z 14011KT 20/18 A2998 RMK A01 T01990176  RH  092%=      5-min Rain = 0
KOES 251225Z 13011KT 20/18 A2998 RMK A01 T01990178  RH  092%=      5-min Rain = 0
KOES 251230Z 13011KT 20/18 A2998 RMK A01 T01990179  RH  093%=      5-min Rain = 0
KOES 251235Z 14011KT 20/18 A2998 RMK A01 T01990182  RH  095%=      5-min Rain = 0
KOES 251240Z 13011KT 20/19 A2999 RMK A01 T01980185  RH  097%=      5-min Rain = 0
KOES 251245Z 14011G17KT 20/19 A2999 RMK A01 T01980185  RH  098%=      5-min Rain = 0
KOES 251250Z 14011KT 20/19 A2999 RMK A01 T01980186  RH  098%=      5-min Rain = 0
KOES 251255Z 14010G15KT 20/19 A2999 RMK A01 T01980186  RH  098%=      5-min Rain = 0
KOES 251300Z 14012KT 20/19 A2999 RMK A01 T01980186  RH  098%=      5-min Rain = 0
KOES 251305Z 14011G16KT 20/19 A2999 RMK A01 T01980187  RH  098%=      5-min Rain = 0
KOES 251310Z 14012KT 20/19 A2999 RMK A01 T01980186  RH  098%=      5-min Rain = 0
KOES 251315Z 14011KT 20/19 A2999 RMK A01 T01980187  RH  099%=      5-min Rain = 0
KOES 251320Z 13010G15KT 20/19 A2999 RMK A01 T01980187  RH  099%=      5-min Rain = 0
KOES 251325Z 14010G16KT 20/19 A2999 RMK A01 T01980187  RH  099%=      5-min Rain = 0
KOES 251330Z 14010KT 20/19 A30 RMK A01 T01980187  RH  099%=      5-min Rain = 0
KOES 251335Z 14011KT 20/19 A30 RMK A01 T01980188  RH  099%=      5-min Rain = 0
KOES 251340Z 14010G15KT 20/19 A30 RMK A01 T01980188  RH  099%=      5-min Rain = 0
KOES 251345Z 14011KT 20/19 A30 RMK A01 T01980188  RH  099%=      5-min Rain = 0
KOES 251350Z 14010KT 20/19 A30 RMK A01 T01980188  RH  099%=      5-min Rain = 0
KOES 251355Z 15010KT 20/19 A3001 RMK A01 T01990188  RH  099%=      5-min Rain = 0
KOES 251400Z 14011G16KT 20/19 A3001 RMK A01 T01990189  RH  099%=      5-min Rain = 0
KOES 251405Z 15011KT 20/19 A3001 RMK A01 T01990189  RH  099%=      5-min Rain = 0
KOES 251410Z 14010KT 20/19 A3001 RMK A01 T01990189  RH  099%=      5-min Rain = 0
KOES 251415Z 14010G15KT 20/19 A3001 RMK A01 T02000190  RH  099%=      5-min Rain = 0
KOES 251420Z 14011G16KT 20/19 A3001 RMK A01 T02000189  RH  099%=      5-min Rain = 0
KOES 251425Z 14010KT 20/19 A3001 RMK A01 T02000190  RH  099%=      5-min Rain = 0
KOES 251430Z 14009KT 20/19 A3001 RMK A01 T02010190  RH  099%=      5-min Rain = 0
KOES 251435Z 14009G14KT 20/19 A30 RMK A01 T02010190  RH  099%=      5-min Rain = 0
KOES 251440Z 13010KT 20/19 A30 RMK A01 T02020191  RH  098%=      5-min Rain = 0
KOES 251445Z 14009G14KT 20/19 A3001 RMK A01 T02030190  RH  098%=      5-min Rain = 0
KOES 251450Z 14010KT 20/19 A3001 RMK A01 T02030189  RH  096%=      5-min Rain = 0
KOES 251455Z 14010KT 20/19 A3001 RMK A01 T02040187  RH  095%=      5-min Rain = 0
KOES 251500Z 14011G16KT 20/18 A3001 RMK A01 T02040184  RH  093%=      5-min Rain = 0
KOES 251505Z 14010G15KT 21/18 A3001 RMK A01 T02050182  RH  091%=      5-min Rain = 0
KOES 251510Z 14011KT 21/18 A3001 RMK A01 T02050181  RH  091%=      5-min Rain = 0
KOES 251515Z 14010KT 21/18 A3001 RMK A01 T02050181  RH  091%=      5-min Rain = 0
KOES 251520Z 14012KT 21/18 A3001 RMK A01 T02050181  RH  091%=      5-min Rain = 0
KOES 251525Z 14012KT 21/18 A3001 RMK A01 T02050182  RH  091%=      5-min Rain = 0
KOES 251530Z 14011G16KT 21/18 A3001 RMK A01 T02050182  RH  091%=      5-min Rain = 0
KOES 251535Z 14013G18KT 21/18 A3001 RMK A01 T02050181  RH  091%=      5-min Rain = 0
KOES 251540Z 14011KT 21/18 A3001 RMK A01 T02060182  RH  091%=      5-min Rain = 0
KOES 251545Z 15010G15KT 21/18 A3001 RMK A01 T02060182  RH  091%=      5-min Rain = 0
KOES 251550Z 14011G16KT 21/18 A3001 RMK A01 T02060181  RH  090%=      5-min Rain = 0
KOES 251555Z 14012KT 21/18 A3001 RMK A01 T02080182  RH  090%=      5-min Rain = 0
KOES 251600Z 14012KT 21/18 A3001 RMK A01 T02090181  RH  089%=      5-min Rain = 0
KOES 251605Z 14011G16KT 21/18 A3001 RMK A01 T02100182  RH  088%=      5-min Rain = 0
KOES 251610Z 14011G16KT 21/18 A3001 RMK A01 T02120182  RH  087%=      5-min Rain = 0
KOES 251615Z 15013KT 22/18 A3001 RMK A01 T02150182  RH  086%=      5-min Rain = 0
KOES 251620Z 14014G19KT 22/18 A3001 RMK A01 T02170181  RH  085%=      5-min Rain = 0
KOES 251625Z 14013KT 22/18 A3001 RMK A01 T02170181  RH  084%=      5-min Rain = 0
KOES 251630Z 14012G17KT 22/18 A3001 RMK A01 T02170181  RH  084%=      5-min Rain = 0
KOES 251635Z 15011KT 22/18 A3001 RMK A01 T02180182  RH  084%=      5-min Rain = 0
KOES 251640Z 15010G15KT 22/18 A3001 RMK A01 T02190182  RH  084%=      5-min Rain = 0
KOES 251645Z 15012G17KT 22/18 A3001 RMK A01 T02190182  RH  084%=      5-min Rain = 0
KOES 251650Z 14011KT 22/18 A3001 RMK A01 T02180182  RH  084%=      5-min Rain = 0
KOES 251655Z 15012G17KT 22/18 A3001 RMK A01 T02180182  RH  084%=      5-min Rain = 0
KOES 251700Z 15011KT 22/18 A3001 RMK A01 T02190182  RH  084%=      5-min Rain = 0
KOES 251705Z 15010G15KT 22/18 A3001 RMK A01 T02200182  RH  084%=      5-min Rain = 0
KOES 251710Z 15011G16KT 22/18 A3001 RMK A01 T02200182  RH  083%=      5-min Rain = 0
KOES 251715Z 15011KT 22/18 A3001 RMK A01 T02200182  RH  083%=      5-min Rain = 0
KOES 251720Z 15009G14KT 22/18 A30 RMK A01 T02200182  RH  083%=      5-min Rain = 0
KOES 251725Z 14012KT 22/18 A30 RMK A01 T02210183  RH  083%=      5-min Rain = 0
KOES 251730Z 14012KT 22/18 A30 RMK A01 T02220183  RH  083%=      5-min Rain = 0
KOES 251735Z 15011G16KT 22/18 A30 RMK A01 T02240183  RH  082%=      5-min Rain = 0
KOES 251740Z 15012G17KT 23/18 A30 RMK A01 T02250183  RH  081%=      5-min Rain = 0
KOES 251745Z 14012G17KT 23/18 A30 RMK A01 T02250183  RH  082%=      5-min Rain = 0
KOES 251750Z 14012G17KT 23/18 A2999 RMK A01 T02260184  RH  082%=      5-min Rain = 0
KOES 251755Z 15012KT 23/19 A2999 RMK A01 T02280185  RH  081%=      5-min Rain = 0
KOES 251800Z 14010G16KT 23/19 A2999 RMK A01 T02340186  RH  079%=      5-min Rain = 0
KOES 251805Z 14013KT 24/19 A2999 RMK A01 T02350186  RH  078%=      5-min Rain = 0
KOES 251810Z 15013G19KT 24/19 A2999 RMK A01 T02360185  RH  077%=      5-min Rain = 0
KOES 251815Z 14014G19KT 24/19 A2999 RMK A01 T02370185  RH  077%=      5-min Rain = 0
KOES 251820Z 15014G19KT 24/19 A2999 RMK A01 T02370185  RH  077%=      5-min Rain = 0
KOES 251825Z 14014KT 24/19 A2999 RMK A01 T02360185  RH  077%=      5-min Rain = 0
KOES 251830Z 14014G19KT 24/19 A2998 RMK A01 T02380185  RH  076%=      5-min Rain = 0
KOES 251835Z 14013G18KT 24/19 A2998 RMK A01 T02410186  RH  075%=      5-min Rain = 0
KOES 251840Z 15013KT 25/19 A2998 RMK A01 T02470188  RH  073%=      5-min Rain = 0
KOES 251845Z 14014KT 25/19 A2998 RMK A01 T02510188  RH  072%=      5-min Rain = 0
KOES 251850Z 14014G20KT 25/19 A2998 RMK A01 T02480186  RH  072%=      5-min Rain = 0
KOES 251855Z 15014G20KT 25/19 A2997 RMK A01 T02470186  RH  073%=      5-min Rain = 0
KOES 251900Z 15014G19KT 25/19 A2997 RMK A01 T02500185  RH  071%=      5-min Rain = 0
KOES 251905Z 15015G21KT 25/19 A2997 RMK A01 T02510185  RH  070%=      5-min Rain = 0
KOES 251910Z 15014G21KT 25/19 A2997 RMK A01 T02520185  RH  070%=      5-min Rain = 0
KOES 251915Z 15015G21KT 25/18 A2996 RMK A01 T02540184  RH  069%=      5-min Rain = 0
KOES 251920Z 15014G19KT 26/18 A2996 RMK A01 T02560184  RH  068%=      5-min Rain = 0
KOES 251925Z 15016G21KT 26/18 A2995 RMK A01 T02570183  RH  067%=      5-min Rain = 0
KOES 251930Z 15015G21KT 26/18 A2995 RMK A01 T02610183  RH  065%=      5-min Rain = 0
KOES 251935Z 16013G20KT 26/18 A2995 RMK A01 T02640183  RH  065%=      5-min Rain = 0
KOES 251940Z 16013G18KT 26/18 A2995 RMK A01 T02640182  RH  064%=      5-min Rain = 0
KOES 251945Z 15014G25KT 27/18 A2995 RMK A01 T02660182  RH  064%=      5-min Rain = 0
KOES 251950Z 16014G20KT 27/18 A2994 RMK A01 T02650181  RH  063%=      5-min Rain = 0
KOES 251955Z 15015G22KT 26/18 A2994 RMK A01 T02640180  RH  063%=      5-min Rain = 0
KOES 252000Z 16016G23KT 26/18 A2994 RMK A01 T02640178  RH  062%=      5-min Rain = 0
KOES 252005Z 16017G25KT 26/18 A2994 RMK A01 T02640175  RH  061%=      5-min Rain = 0
KOES 252010Z 17018G24KT 27/18 A2994 RMK A01 T02660175  RH  060%=      5-min Rain = 0
KOES 252015Z 17018G24KT 27/18 A2994 RMK A01 T02670175  RH  060%=      5-min Rain = 0
KOES 252020Z 17018G26KT 27/17 A2994 RMK A01 T02700174  RH  059%=      5-min Rain = 0
KOES 252025Z 17017G24KT 27/18 A2993 RMK A01 T02730176  RH  058%=      5-min Rain = 0
KOES 252030Z 16016G24KT 28/18 A2993 RMK A01 T02780176  RH  057%=      5-min Rain = 0
KOES 252035Z 17015G22KT 27/17 A2993 RMK A01 T02740174  RH  057%=      5-min Rain = 0
KOES 252040Z 16014G22KT 28/18 A2993 RMK A01 T02750175  RH  057%=      5-min Rain = 0
KOES 252045Z 16016G22KT 28/18 A2993 RMK A01 T02770175  RH  057%=      5-min Rain = 0
KOES 252050Z 16014G21KT 28/18 A2993 RMK A01 T02810176  RH  056%=      5-min Rain = 0
KOES 252055Z 16018G27KT 28/17 A2993 RMK A01 T02800173  RH  055%=      5-min Rain = 0
KOES 252100Z 16016G22KT 28/17 A2994 RMK A01 T02790174  RH  056%=      5-min Rain = 0
KOES 252105Z 17017G25KT 28/17 A2994 RMK A01 T02810174  RH  055%=      5-min Rain = 0
KOES 252110Z 16016G23KT 28/17 A2994 RMK A01 T02810173  RH  054%=      5-min Rain = 0
KOES 252115Z 17016G24KT 28/17 A2993 RMK A01 T02790172  RH  055%=      5-min Rain = 0
KOES 252120Z 16016G22KT 27/17 A2992 RMK A01 T02720170  RH  056%=      5-min Rain = 0
KOES 252125Z 17017G24KT 27/17 A2993 RMK A01 T02670169  RH  058%=      5-min Rain = 0
KOES 252130Z 17015G23KT 27/17 A2993 RMK A01 T02650168  RH  058%=      5-min Rain = 0
KOES 252135Z 16015G22KT 26/17 A2992 RMK A01 T02630169  RH  059%=      5-min Rain = 0
KOES 252140Z 17014G22KT 26/17 A2993 RMK A01 T02610169  RH  060%=      5-min Rain = 0
KOES 252145Z 17011G19KT 26/17 A2993 RMK A01 T02590169  RH  061%=      5-min Rain = 0
KOES 252150Z 17011G17KT 26/17 A2993 RMK A01 T02580170  RH  061%=      5-min Rain = 0
KOES 252155Z 17010G20KT 26/17 A2992 RMK A01 T02580170  RH  061%=      5-min Rain = 0
KOES 252200Z 17014G20KT 26/17 A2992 RMK A01 T02570169  RH  061%=      5-min Rain = 0
KOES 252205Z 17012G19KT 26/17 A2992 RMK A01 T02560170  RH  062%=      5-min Rain = 0
KOES 252210Z 16013G18KT 26/17 A2992 RMK A01 T02560171  RH  062%=      5-min Rain = 0
KOES 252215Z 16012G17KT 26/17 A2992 RMK A01 T02580173  RH  063%=      5-min Rain = 0
KOES 252220Z 16014G24KT 26/17 A2992 RMK A01 T02630174  RH  061%=      5-min Rain = 0
KOES 252225Z 16014G20KT 27/17 A2992 RMK A01 T02710173  RH  058%=      5-min Rain = 0
KOES 252230Z 17017G23KT 27/17 A2992 RMK A01 T02740172  RH  056%=      5-min Rain = 0
KOES 252235Z 17018G26KT 28/17 A2992 RMK A01 T02780171  RH  055%=      5-min Rain = 0
KOES 252240Z 17018G26KT 28/17 A2991 RMK A01 T02780172  RH  055%=      5-min Rain = 0
KOES 252245Z 16019G26KT 28/17 A2991 RMK A01 T02780172  RH  055%=      5-min Rain = 0
KOES 252250Z 16017G25KT 28/17 A2991 RMK A01 T02790171  RH  054%=      5-min Rain = 0
KOES 252255Z 16019G29KT 28/17 A299 RMK A01 T02800170  RH  054%=      5-min Rain = 0
KOES 252300Z 16018G25KT 28/17 A299 RMK A01 T02770167  RH  054%=      5-min Rain = 0
KOES 252305Z 16020G29KT 27/17 A299 RMK A01 T02740165  RH  054%=      5-min Rain = 0
KOES 252310Z 17020G27KT 27/16 A299 RMK A01 T02710164  RH  055%=      5-min Rain = 0
KOES 252315Z 17020G29KT 27/17 A299 RMK A01 T02720165  RH  055%=      5-min Rain = 0
KOES 252320Z 17018G26KT 27/17 A299 RMK A01 T02730167  RH  055%=      5-min Rain = 0
KOES 252325Z 17019G29KT 27/17 A299 RMK A01 T02720167  RH  055%=      5-min Rain = 0
KOES 252330Z 17019G27KT 27/17 A299 RMK A01 T02700167  RH  056%=      5-min Rain = 0
KOES 252335Z 17017G27KT 27/17 A299 RMK A01 T02700166  RH  056%=      5-min Rain = 0
KOES 252340Z 17018G27KT 27/17 A299 RMK A01 T02710166  RH  055%=      5-min Rain = 0
KOES 252345Z 17021G28KT 27/17 A299 RMK A01 T02700166  RH  055%=      5-min Rain = 0
KOES 252350Z 17018G27KT 27/17 A299 RMK A01 T02700166  RH  055%=      5-min Rain = 0
KOES 252355Z 17018G24KT 27/16 A2991 RMK A01 T02700164  RH  055%=      5-min Rain = 0
KOES 260000Z 17017G24KT 27/17 A2991 RMK A01 T02680165  RH  056%=      5-min Rain = 0
KOES 260005Z 17016G23KT 27/17 A2991 RMK A01 T02690165  RH  056%=      5-min Rain = 0
KOES 260010Z 17016G21KT 27/17 A2991 RMK A01 T02680165  RH  056%=      5-min Rain = 0
KOES 260015Z 17014G19KT 27/17 A2992 RMK A01 T02680165  RH  056%=      5-min Rain = 0
KOES 260020Z 17016G22KT 27/16 A2991 RMK A01 T02680164  RH  056%=      5-min Rain = 0
KOES 260025Z 16014G20KT 27/17 A2992 RMK A01 T02670166  RH  057%=      5-min Rain = 0
KOES 260030Z 17014G20KT 27/17 A2992 RMK A01 T02660166  RH  057%=      5-min Rain = 0
KOES 260035Z 16014G22KT 27/17 A2992 RMK A01 T02660166  RH  057%=      5-min Rain = 0
KOES 260040Z 17012G18KT 27/17 A2992 RMK A01 T02650166  RH  057%=      5-min Rain = 0
KOES 260045Z 16014G22KT 27/17 A2993 RMK A01 T02650167  RH  058%=      5-min Rain = 0
KOES 260050Z 17015G21KT 26/17 A2993 RMK A01 T02630166  RH  058%=      5-min Rain = 0
KOES 260055Z 17014G19KT 26/17 A2993 RMK A01 T02620166  RH  059%=      5-min Rain = 0
KOES 260100Z 17013G18KT 26/17 A2993 RMK A01 T02610166  RH  059%=      5-min Rain = 0
KOES 260105Z 17015G21KT 26/17 A2993 RMK A01 T02600167  RH  059%=      5-min Rain = 0
KOES 260110Z 17015G25KT 26/17 A2993 RMK A01 T02580165  RH  059%=      5-min Rain = 0
KOES 260115Z 17014G22KT 26/17 A2993 RMK A01 T02570165  RH  060%=      5-min Rain = 0
KOES 260120Z 17014G20KT 26/17 A2993 RMK A01 T02560166  RH  060%=      5-min Rain = 0
KOES 260125Z 17015G25KT 26/17 A2993 RMK A01 T02550166  RH  061%=      5-min Rain = 0
KOES 260130Z 17012G18KT 25/17 A2993 RMK A01 T02530166  RH  062%=      5-min Rain = 0
KOES 260135Z 17012G18KT 25/17 A2994 RMK A01 T02510166  RH  062%=      5-min Rain = 0
KOES 260140Z 17011G16KT 25/17 A2994 RMK A01 T02500167  RH  063%=      5-min Rain = 0
KOES 260145Z 17012G18KT 25/17 A2994 RMK A01 T02490167  RH  063%=      5-min Rain = 0
KOES 260150Z 17013G19KT 25/17 A2995 RMK A01 T02480167  RH  064%=      5-min Rain = 0
KOES 260155Z 17012G17KT 25/17 A2995 RMK A01 T02470167  RH  064%=      5-min Rain = 0
KOES 260200Z 16012G17KT 25/17 A2994 RMK A01 T02450168  RH  065%=      5-min Rain = 0
KOES 260205Z 16013G19KT 25/17 A2994 RMK A01 T02450168  RH  065%=      5-min Rain = 0
KOES 260210Z 16012G18KT 24/17 A2994 RMK A01 T02430168  RH  066%=      5-min Rain = 0
KOES 260215Z 16012KT 24/17 A2993 RMK A01 T02420168  RH  066%=      5-min Rain = 0
KOES 260220Z 16012G17KT 24/17 A2993 RMK A01 T02410168  RH  067%=      5-min Rain = 0
KOES 260225Z 15012G19KT 24/17 A2993 RMK A01 T02400168  RH  067%=      5-min Rain = 0
KOES 260230Z 15012KT 24/17 A2993 RMK A01 T02390168  RH  068%=      5-min Rain = 0
KOES 260235Z 15011KT 24/17 A2993 RMK A01 T02370168  RH  068%=      5-min Rain = 0
KOES 260240Z 15012G17KT 24/17 A2993 RMK A01 T02360168  RH  069%=      5-min Rain = 0
KOES 260245Z 15012G18KT 24/17 A2993 RMK A01 T02360168  RH  069%=      5-min Rain = 0
KOES 260250Z 16012G18KT 24/17 A2993 RMK A01 T02350168  RH  070%=      5-min Rain = 0
KOES 260255Z 16010G16KT 23/17 A2994 RMK A01 T02340168  RH  070%=      5-min Rain = 0
KOES 260300Z 16012G17KT 23/17 A2994 RMK A01 T02340168  RH  070%=      5-min Rain = 0
KOES 260305Z 16012G17KT 23/17 A2994 RMK A01 T02330167  RH  070%=      5-min Rain = 0
KOES 260310Z 17012KT 23/17 A2994 RMK A01 T02320167  RH  070%=      5-min Rain = 0
KOES 260315Z 17012G18KT 23/17 A2994 RMK A01 T02310166  RH  070%=      5-min Rain = 0
KOES 260320Z 18012G18KT 23/17 A2994 RMK A01 T02300165  RH  070%=      5-min Rain = 0
KOES 260325Z 18013G18KT 23/16 A2994 RMK A01 T02310163  RH  069%=      5-min Rain = 0
KOES 260330Z 18012G18KT 23/16 A2994 RMK A01 T02310163  RH  069%=      5-min Rain = 0
KOES 260335Z 18012KT 23/16 A2994 RMK A01 T02290162  RH  069%=      5-min Rain = 0
KOES 260340Z 18011G16KT 23/16 A2994 RMK A01 T02280161  RH  069%=      5-min Rain = 0
KOES 260345Z 18012G17KT 23/16 A2995 RMK A01 T02290160  RH  068%=      5-min Rain = 0
KOES 260350Z 18012KT 23/16 A2995 RMK A01 T02280159  RH  068%=      5-min Rain = 0
KOES 260355Z 17012G17KT 23/16 A2995 RMK A01 T02280159  RH  068%=      5-min Rain = 0
KOES 260400Z 18012G17KT 23/16 A2995 RMK A01 T02280160  RH  069%=      5-min Rain = 0
KOES 260405Z 17011G16KT 23/16 A2995 RMK A01 T02260160  RH  069%=      5-min Rain = 0
KOES 260410Z 17011G16KT 23/16 A2995 RMK A01 T02260160  RH  070%=      5-min Rain = 0
KOES 260415Z 18011KT 23/16 A2995 RMK A01 T02250160  RH  070%=      5-min Rain = 0
KOES 260420Z 18010KT 22/16 A2995 RMK A01 T02230161  RH  071%=      5-min Rain = 0
KOES 260425Z 17010G15KT 22/16 A2995 RMK A01 T02220161  RH  072%=      5-min Rain = 0
KOES 260430Z 17010KT 22/16 A2995 RMK A01 T02220161  RH  072%=      5-min Rain = 0
KOES 260435Z 18010KT 22/16 A2995 RMK A01 T02210161  RH  072%=      5-min Rain = 0
KOES 260440Z 17009KT 22/16 A2995 RMK A01 T02200161  RH  073%=      5-min Rain = 0
KOES 260445Z 17010KT 22/16 A2995 RMK A01 T02190161  RH  073%=      5-min Rain = 0
KOES 260450Z 17010KT 22/16 A2995 RMK A01 T02190161  RH  073%=      5-min Rain = 0
KOES 260455Z 17009KT 22/16 A2995 RMK A01 T02180161  RH  074%=      5-min Rain = 0

Page generated in 0.0095 seconds.